Maran Canopus — SXUQ — position and weather

sailwx.info

Track history (hours):
 
Tides and Currents Weather Stations Pressure Air Temp Water Temp Dewpoint Dewpoint Depression Visibility Wind Speed Wind Dir Waves Ship Positions

Maran Canopus

Last reported at 2016-Sep-05 18:33 UTC. Time now 2016-Sep-25 00:16 UTC.
Position N 01°59' E 102°12'.
Warning: this ship's position is 19 days out of date.

Length 333 m; draft 11.3 m.

Type: Tanker. MMSI: 240677000.

Date/timePositionNaut miles runAvg speedWind from/ knotsBaromVisibWave heightAir tempDewpointWater temp
2016-Sep-05 18:33N 01°59' E 102°12'1111.5
2016-Sep-05 17:33N 01°53' E 102°22'1110.8
2016-Sep-05 16:33N 01°49' E 102°32'10 9.9
2016-Sep-05 15:33N 01°44' E 102°41'6610.6
2016-Sep-05 09:21N 01°12' E 103°37'7 9.3
2016-Sep-05 08:33N 01°08' E 103°44'9 9.4
2016-Sep-05 07:33N 01°12' E 103°52'4 3.7
2016-Sep-05 06:33N 01°15' E 103°55'0 0.0
2016-Sep-05 04:30N 01°15' E 103°55'0 0.0
2016-Sep-05 03:30N 01°15' E 103°55'0 0.1
2016-Sep-05 02:30N 01°15' E 103°55'0 0.1
2016-Sep-05 01:30N 01°15' E 103°55'0 0.2
2016-Sep-05 00:30N 01°15' E 103°55'0 0.0
2016-Sep-04 23:30N 01°15' E 103°55'0 0.0
2016-Sep-04 22:24N 01°15' E 103°55'0 0.0
2016-Sep-04 21:33N 01°15' E 103°55'0 0.0
2016-Sep-04 20:30N 01°15' E 103°55'0 0.0
2016-Sep-04 19:30N 01°15' E 103°55'0 0.1
2016-Sep-04 18:30N 01°15' E 103°55'0 0.1
2016-Sep-04 17:12N 01°15' E 103°55'0 0.2
2016-Sep-04 16:27N 01°15' E 103°55'0 0.1
2016-Sep-04 15:30N 01°15' E 103°55'0 0.0
2016-Sep-04 14:30N 01°15' E 103°55'0 0.1
2016-Sep-04 13:33N 01°15' E 103°55'0 0.1
2016-Sep-04 12:24N 01°15' E 103°55'0 0.2
2016-Sep-04 11:30N 01°15' E 103°55'0 0.1
2016-Sep-04 10:33N 01°15' E 103°55'0 0.0
2016-Sep-04 09:33N 01°15' E 103°55'0 0.1
2016-Sep-04 08:33N 01°15' E 103°55'0 0.1
2016-Sep-04 07:33N 01°15' E 103°55'0 0.1
2016-Sep-04 06:33N 01°15' E 103°55'0 0.1
2016-Sep-04 04:33N 01°15' E 103°55'0 0.0
2016-Sep-04 03:33N 01°15' E 103°55'4 3.6
2016-Sep-04 02:33N 01°16' E 103°59'3 2.8
2016-Sep-04 01:33N 01°16' E 104°01'3 3.1
2016-Sep-04 00:33N 01°17' E 104°04'6 4.7
2016-Sep-03 23:22N 01°17' E 104°10'  
Track history (hours):
 
Tides and Currents Weather Stations Pressure Air Temp Water Temp Dewpoint Dewpoint Depression Visibility Wind Speed Wind Dir Waves Ship Positions

Maran Canopus

Last reported at 2016-Sep-05 18:33 UTC. Time now 2016-Sep-25 00:16 UTC.
Position N 01°59' E 102°12'.
Warning: this ship's position is 19 days out of date.

Length 333 m; draft 11.3 m.

Type: Tanker. MMSI: 240677000.

Date/timePositionNaut miles runAvg speedWind from/ knotsBaromVisibWave heightAir tempDewpointWater temp
2016-Sep-05 18:33N 01°59' E 102°12'1111.5
2016-Sep-05 17:33N 01°53' E 102°22'1110.8
2016-Sep-05 16:33N 01°49' E 102°32'10 9.9
2016-Sep-05 15:33N 01°44' E 102°41'6610.6
2016-Sep-05 09:21N 01°12' E 103°37'7 9.3
2016-Sep-05 08:33N 01°08' E 103°44'9 9.4
2016-Sep-05 07:33N 01°12' E 103°52'4 3.7
2016-Sep-05 06:33N 01°15' E 103°55'0 0.0
2016-Sep-05 04:30N 01°15' E 103°55'0 0.0
2016-Sep-05 03:30N 01°15' E 103°55'0 0.1
2016-Sep-05 02:30N 01°15' E 103°55'0 0.1
2016-Sep-05 01:30N 01°15' E 103°55'0 0.2
2016-Sep-05 00:30N 01°15' E 103°55'0 0.0
2016-Sep-04 23:30N 01°15' E 103°55'0 0.0
2016-Sep-04 22:24N 01°15' E 103°55'0 0.0
2016-Sep-04 21:33N 01°15' E 103°55'0 0.0
2016-Sep-04 20:30N 01°15' E 103°55'0 0.0
2016-Sep-04 19:30N 01°15' E 103°55'0 0.1
2016-Sep-04 18:30N 01°15' E 103°55'0 0.1
2016-Sep-04 17:12N 01°15' E 103°55'0 0.2
2016-Sep-04 16:27N 01°15' E 103°55'0 0.1
2016-Sep-04 15:30N 01°15' E 103°55'0 0.0
2016-Sep-04 14:30N 01°15' E 103°55'0 0.1
2016-Sep-04 13:33N 01°15' E 103°55'0 0.1
2016-Sep-04 12:24N 01°15' E 103°55'0 0.2
2016-Sep-04 11:30N 01°15' E 103°55'0 0.1
2016-Sep-04 10:33N 01°15' E 103°55'0 0.0
2016-Sep-04 09:33N 01°15' E 103°55'0 0.1
2016-Sep-04 08:33N 01°15' E 103°55'0 0.1
2016-Sep-04 07:33N 01°15' E 103°55'0 0.1
2016-Sep-04 06:33N 01°15' E 103°55'0 0.1
2016-Sep-04 04:33N 01°15' E 103°55'0 0.0
2016-Sep-04 03:33N 01°15' E 103°55'4 3.6
2016-Sep-04 02:33N 01°16' E 103°59'3 2.8
2016-Sep-04 01:33N 01°16' E 104°01'3 3.1
2016-Sep-04 00:33N 01°17' E 104°04'6 4.7
2016-Sep-03 23:22N 01°17' E 104°10'  

Dump ship's entire track history